sensor_id;sensor_type;location;lat;lon;timestamp;P1;durP1;ratioP1;P2;durP2;ratioP2
19998;SDS011;10160;50.926;4.374;2022-12-18T00:01:56;64.03;;;28.00;;
19998;SDS011;10160;50.926;4.374;2022-12-18T00:04:24;63.37;;;27.37;;
19998;SDS011;10160;50.926;4.374;2022-12-18T00:06:51;62.93;;;27.23;;
19998;SDS011;10160;50.926;4.374;2022-12-18T00:09:17;58.33;;;26.17;;
19998;SDS011;10160;50.926;4.374;2022-12-18T00:11:44;60.37;;;25.80;;
19998;SDS011;10160;50.926;4.374;2022-12-18T00:14:11;63.90;;;27.03;;
19998;SDS011;10160;50.926;4.374;2022-12-18T00:16:37;57.50;;;26.73;;
19998;SDS011;10160;50.926;4.374;2022-12-18T00:19:03;55.87;;;25.83;;
19998;SDS011;10160;50.926;4.374;2022-12-18T00:21:30;55.10;;;24.63;;
19998;SDS011;10160;50.926;4.374;2022-12-18T00:23:57;55.77;;;26.80;;
19998;SDS011;10160;50.926;4.374;2022-12-18T00:26:24;59.33;;;25.77;;
19998;SDS011;10160;50.926;4.374;2022-12-18T00:28:52;60.07;;;26.43;;
19998;SDS011;10160;50.926;4.374;2022-12-18T00:31:19;57.07;;;26.00;;
19998;SDS011;10160;50.926;4.374;2022-12-18T00:33:46;52.47;;;24.93;;
19998;SDS011;10160;50.926;4.374;2022-12-18T00:36:14;67.10;;;27.87;;
19998;SDS011;10160;50.926;4.374;2022-12-18T00:38:44;63.03;;;28.53;;
19998;SDS011;10160;50.926;4.374;2022-12-18T00:41:11;62.43;;;28.27;;
19998;SDS011;10160;50.926;4.374;2022-12-18T00:43:38;60.17;;;27.40;;
19998;SDS011;10160;50.926;4.374;2022-12-18T00:46:04;57.27;;;26.80;;
19998;SDS011;10160;50.926;4.374;2022-12-18T00:48:31;62.53;;;27.60;;
19998;SDS011;10160;50.926;4.374;2022-12-18T00:50:57;58.23;;;26.37;;
19998;SDS011;10160;50.926;4.374;2022-12-18T00:53:23;59.60;;;26.53;;
19998;SDS011;10160;50.926;4.374;2022-12-18T00:55:48;59.87;;;27.47;;
19998;SDS011;10160;50.926;4.374;2022-12-18T00:58:15;61.80;;;28.03;;
19998;SDS011;10160;50.926;4.374;2022-12-18T01:00:42;54.63;;;25.03;;
19998;SDS011;10160;50.926;4.374;2022-12-18T01:03:09;56.90;;;24.23;;
19998;SDS011;10160;50.926;4.374;2022-12-18T01:05:38;59.73;;;25.30;;
19998;SDS011;10160;50.926;4.374;2022-12-18T01:08:05;52.93;;;25.10;;
19998;SDS011;10160;50.926;4.374;2022-12-18T01:10:31;57.20;;;26.27;;
19998;SDS011;10160;50.926;4.374;2022-12-18T01:12:56;62.47;;;27.43;;
19998;SDS011;10160;50.926;4.374;2022-12-18T01:15:22;51.50;;;24.10;;
19998;SDS011;10160;50.926;4.374;2022-12-18T01:17:48;51.73;;;24.13;;
19998;SDS011;10160;50.926;4.374;2022-12-18T01:20:13;53.50;;;22.70;;
19998;SDS011;10160;50.926;4.374;2022-12-18T01:22:39;51.03;;;23.93;;
19998;SDS011;10160;50.926;4.374;2022-12-18T01:25:05;58.33;;;24.67;;
19998;SDS011;10160;50.926;4.374;2022-12-18T01:27:32;62.30;;;26.10;;
19998;SDS011;10160;50.926;4.374;2022-12-18T01:29:58;55.57;;;24.63;;
19998;SDS011;10160;50.926;4.374;2022-12-18T01:32:24;80.30;;;33.20;;
19998;SDS011;10160;50.926;4.374;2022-12-18T01:34:50;120.77;;;47.27;;
19998;SDS011;10160;50.926;4.374;2022-12-18T01:37:15;153.47;;;57.40;;
19998;SDS011;10160;50.926;4.374;2022-12-18T01:39:41;71.70;;;29.83;;
19998;SDS011;10160;50.926;4.374;2022-12-18T01:42:13;54.53;;;25.67;;
19998;SDS011;10160;50.926;4.374;2022-12-18T01:44:59;58.63;;;25.20;;
19998;SDS011;10160;50.926;4.374;2022-12-18T01:47:32;62.53;;;27.20;;
19998;SDS011;10160;50.926;4.374;2022-12-18T01:50:15;60.60;;;25.60;;
19998;SDS011;10160;50.926;4.374;2022-12-18T01:52:54;55.07;;;25.23;;
19998;SDS011;10160;50.926;4.374;2022-12-18T01:55:24;59.57;;;26.43;;
19998;SDS011;10160;50.926;4.374;2022-12-18T01:57:53;50.43;;;23.90;;
19998;SDS011;10160;50.926;4.374;2022-12-18T02:00:21;55.23;;;26.17;;
19998;SDS011;10160;50.926;4.374;2022-12-18T02:02:48;56.50;;;25.60;;
19998;SDS011;10160;50.926;4.374;2022-12-18T02:05:15;54.63;;;24.53;;
19998;SDS011;10160;50.926;4.374;2022-12-18T02:07:47;55.30;;;25.03;;
19998;SDS011;10160;50.926;4.374;2022-12-18T02:23:56;53.57;;;24.27;;
19998;SDS011;10160;50.926;4.374;2022-12-18T02:26:34;48.93;;;24.57;;
19998;SDS011;10160;50.926;4.374;2022-12-18T02:29:13;54.00;;;24.30;;
19998;SDS011;10160;50.926;4.374;2022-12-18T02:31:50;46.97;;;22.40;;
19998;SDS011;10160;50.926;4.374;2022-12-18T02:34:18;52.20;;;23.97;;
19998;SDS011;10160;50.926;4.374;2022-12-18T02:36:48;50.87;;;23.40;;
19998;SDS011;10160;50.926;4.374;2022-12-18T02:39:16;55.20;;;24.60;;
19998;SDS011;10160;50.926;4.374;2022-12-18T02:41:46;54.37;;;23.97;;
19998;SDS011;10160;50.926;4.374;2022-12-18T02:44:12;50.13;;;23.27;;
19998;SDS011;10160;50.926;4.374;2022-12-18T03:00:17;48.20;;;21.93;;
19998;SDS011;10160;50.926;4.374;2022-12-18T03:05:33;45.90;;;21.17;;
19998;SDS011;10160;50.926;4.374;2022-12-18T03:08:30;43.73;;;20.37;;
19998;SDS011;10160;50.926;4.374;2022-12-18T03:11:01;48.37;;;21.00;;
19998;SDS011;10160;50.926;4.374;2022-12-18T03:14:01;46.70;;;20.37;;
19998;SDS011;10160;50.926;4.374;2022-12-18T03:16:26;44.47;;;21.00;;
19998;SDS011;10160;50.926;4.374;2022-12-18T03:19:12;41.07;;;20.20;;
19998;SDS011;10160;50.926;4.374;2022-12-18T03:21:47;43.47;;;18.57;;
19998;SDS011;10160;50.926;4.374;2022-12-18T03:24:21;41.30;;;18.83;;
19998;SDS011;10160;50.926;4.374;2022-12-18T03:26:49;43.03;;;19.90;;
19998;SDS011;10160;50.926;4.374;2022-12-18T03:29:25;43.07;;;20.20;;
19998;SDS011;10160;50.926;4.374;2022-12-18T03:31:59;46.87;;;20.03;;
19998;SDS011;10160;50.926;4.374;2022-12-18T03:34:37;40.50;;;18.23;;
19998;SDS011;10160;50.926;4.374;2022-12-18T03:37:05;41.77;;;18.67;;
19998;SDS011;10160;50.926;4.374;2022-12-18T03:39:31;36.00;;;17.90;;
19998;SDS011;10160;50.926;4.374;2022-12-18T03:42:05;37.97;;;18.23;;
19998;SDS011;10160;50.926;4.374;2022-12-18T03:44:42;42.37;;;18.97;;
19998;SDS011;10160;50.926;4.374;2022-12-18T03:49:54;46.40;;;18.57;;
19998;SDS011;10160;50.926;4.374;2022-12-18T03:52:26;44.57;;;18.63;;
19998;SDS011;10160;50.926;4.374;2022-12-18T03:55:05;46.93;;;20.93;;
19998;SDS011;10160;50.926;4.374;2022-12-18T03:57:33;43.63;;;19.60;;
19998;SDS011;10160;50.926;4.374;2022-12-18T04:00:05;39.53;;;18.33;;
19998;SDS011;10160;50.926;4.374;2022-12-18T04:02:44;35.70;;;18.40;;
19998;SDS011;10160;50.926;4.374;2022-12-18T04:05:12;46.90;;;18.63;;
19998;SDS011;10160;50.926;4.374;2022-12-18T04:07:39;39.80;;;18.63;;
19998;SDS011;10160;50.926;4.374;2022-12-18T04:10:06;38.37;;;18.37;;
19998;SDS011;10160;50.926;4.374;2022-12-18T04:12:33;37.53;;;18.53;;
19998;SDS011;10160;50.926;4.374;2022-12-18T04:14:58;34.50;;;17.50;;
19998;SDS011;10160;50.926;4.374;2022-12-18T04:17:24;37.70;;;18.23;;
19998;SDS011;10160;50.926;4.374;2022-12-18T04:19:50;35.20;;;17.60;;
19998;SDS011;10160;50.926;4.374;2022-12-18T04:22:15;40.37;;;18.03;;
19998;SDS011;10160;50.926;4.374;2022-12-18T04:24:41;38.00;;;18.03;;
19998;SDS011;10160;50.926;4.374;2022-12-18T04:27:07;33.73;;;17.23;;
19998;SDS011;10160;50.926;4.374;2022-12-18T04:29:32;37.20;;;17.80;;
19998;SDS011;10160;50.926;4.374;2022-12-18T04:31:58;34.57;;;15.97;;
19998;SDS011;10160;50.926;4.374;2022-12-18T04:34:24;39.20;;;18.13;;
19998;SDS011;10160;50.926;4.374;2022-12-18T04:36:49;36.13;;;16.90;;
19998;SDS011;10160;50.926;4.374;2022-12-18T04:39:15;34.83;;;16.20;;
19998;SDS011;10160;50.926;4.374;2022-12-18T04:41:41;35.40;;;17.63;;
19998;SDS011;10160;50.926;4.374;2022-12-18T04:44:06;34.40;;;17.07;;
19998;SDS011;10160;50.926;4.374;2022-12-18T04:46:32;38.47;;;17.50;;
19998;SDS011;10160;50.926;4.374;2022-12-18T04:48:57;36.63;;;17.97;;
19998;SDS011;10160;50.926;4.374;2022-12-18T04:51:23;34.37;;;16.37;;
19998;SDS011;10160;50.926;4.374;2022-12-18T04:53:49;33.07;;;16.07;;
19998;SDS011;10160;50.926;4.374;2022-12-18T04:56:15;30.97;;;16.80;;
19998;SDS011;10160;50.926;4.374;2022-12-18T04:58:41;29.03;;;15.33;;
19998;SDS011;10160;50.926;4.374;2022-12-18T05:01:08;33.90;;;16.77;;
19998;SDS011;10160;50.926;4.374;2022-12-18T05:03:35;29.80;;;15.47;;
19998;SDS011;10160;50.926;4.374;2022-12-18T05:06:01;32.57;;;14.63;;
19998;SDS011;10160;50.926;4.374;2022-12-18T05:08:27;34.37;;;16.77;;
19998;SDS011;10160;50.926;4.374;2022-12-18T05:11:01;32.33;;;16.40;;
19998;SDS011;10160;50.926;4.374;2022-12-18T05:13:28;32.63;;;16.87;;
19998;SDS011;10160;50.926;4.374;2022-12-18T05:15:54;31.73;;;16.93;;
19998;SDS011;10160;50.926;4.374;2022-12-18T05:18:20;35.67;;;17.57;;
19998;SDS011;10160;50.926;4.374;2022-12-18T05:20:47;31.70;;;16.03;;
19998;SDS011;10160;50.926;4.374;2022-12-18T05:23:14;36.27;;;17.93;;
19998;SDS011;10160;50.926;4.374;2022-12-18T05:25:40;36.97;;;16.90;;
19998;SDS011;10160;50.926;4.374;2022-12-18T05:28:05;33.03;;;16.80;;
19998;SDS011;10160;50.926;4.374;2022-12-18T05:30:31;37.77;;;17.00;;
19998;SDS011;10160;50.926;4.374;2022-12-18T05:32:57;35.20;;;16.83;;
19998;SDS011;10160;50.926;4.374;2022-12-18T05:35:22;38.63;;;16.33;;
19998;SDS011;10160;50.926;4.374;2022-12-18T05:37:48;33.00;;;16.67;;
19998;SDS011;10160;50.926;4.374;2022-12-18T05:40:14;39.63;;;16.93;;
19998;SDS011;10160;50.926;4.374;2022-12-18T05:42:39;42.30;;;18.30;;
19998;SDS011;10160;50.926;4.374;2022-12-18T05:45:05;35.43;;;17.53;;
19998;SDS011;10160;50.926;4.374;2022-12-18T05:47:31;39.33;;;17.20;;
19998;SDS011;10160;50.926;4.374;2022-12-18T05:49:57;37.50;;;16.33;;
19998;SDS011;10160;50.926;4.374;2022-12-18T05:52:22;34.13;;;15.70;;
19998;SDS011;10160;50.926;4.374;2022-12-18T05:54:48;33.97;;;16.80;;
19998;SDS011;10160;50.926;4.374;2022-12-18T05:57:14;34.93;;;16.83;;
19998;SDS011;10160;50.926;4.374;2022-12-18T05:59:39;37.10;;;17.43;;
19998;SDS011;10160;50.926;4.374;2022-12-18T06:02:05;38.20;;;17.83;;
19998;SDS011;10160;50.926;4.374;2022-12-18T06:04:31;35.13;;;17.20;;
19998;SDS011;10160;50.926;4.374;2022-12-18T06:06:56;38.03;;;17.37;;
19998;SDS011;10160;50.926;4.374;2022-12-18T06:09:22;33.90;;;17.43;;
19998;SDS011;10160;50.926;4.374;2022-12-18T06:11:48;35.60;;;17.23;;
19998;SDS011;10160;50.926;4.374;2022-12-18T06:14:16;37.67;;;16.27;;
19998;SDS011;10160;50.926;4.374;2022-12-18T06:16:42;33.73;;;16.93;;
19998;SDS011;10160;50.926;4.374;2022-12-18T06:19:07;32.60;;;16.40;;
19998;SDS011;10160;50.926;4.374;2022-12-18T06:21:38;38.07;;;16.97;;
19998;SDS011;10160;50.926;4.374;2022-12-18T06:24:04;34.33;;;16.50;;
19998;SDS011;10160;50.926;4.374;2022-12-18T06:26:30;36.70;;;16.93;;
19998;SDS011;10160;50.926;4.374;2022-12-18T06:28:55;34.70;;;16.20;;
19998;SDS011;10160;50.926;4.374;2022-12-18T06:31:21;31.47;;;16.77;;
19998;SDS011;10160;50.926;4.374;2022-12-18T06:33:47;33.53;;;16.53;;
19998;SDS011;10160;50.926;4.374;2022-12-18T06:36:13;31.50;;;15.87;;
19998;SDS011;10160;50.926;4.374;2022-12-18T06:38:40;34.53;;;16.57;;
19998;SDS011;10160;50.926;4.374;2022-12-18T06:41:11;33.23;;;16.23;;
19998;SDS011;10160;50.926;4.374;2022-12-18T06:43:41;29.60;;;15.03;;
19998;SDS011;10160;50.926;4.374;2022-12-18T06:46:06;33.20;;;16.80;;
19998;SDS011;10160;50.926;4.374;2022-12-18T06:48:32;32.80;;;15.33;;
19998;SDS011;10160;50.926;4.374;2022-12-18T06:50:58;29.53;;;14.80;;
19998;SDS011;10160;50.926;4.374;2022-12-18T06:53:24;34.43;;;15.50;;
19998;SDS011;10160;50.926;4.374;2022-12-18T06:55:50;29.17;;;14.10;;
19998;SDS011;10160;50.926;4.374;2022-12-18T06:58:16;31.30;;;14.60;;
19998;SDS011;10160;50.926;4.374;2022-12-18T07:00:42;31.87;;;14.87;;
19998;SDS011;10160;50.926;4.374;2022-12-18T07:03:07;31.20;;;16.00;;
19998;SDS011;10160;50.926;4.374;2022-12-18T07:05:33;29.40;;;14.53;;
19998;SDS011;10160;50.926;4.374;2022-12-18T07:07:59;31.80;;;15.50;;
19998;SDS011;10160;50.926;4.374;2022-12-18T07:10:25;34.60;;;16.03;;
19998;SDS011;10160;50.926;4.374;2022-12-18T07:12:51;31.40;;;15.67;;
19998;SDS011;10160;50.926;4.374;2022-12-18T07:15:16;33.10;;;15.53;;
19998;SDS011;10160;50.926;4.374;2022-12-18T07:17:42;35.20;;;15.70;;
19998;SDS011;10160;50.926;4.374;2022-12-18T07:20:08;30.77;;;15.50;;
19998;SDS011;10160;50.926;4.374;2022-12-18T07:22:34;30.13;;;14.97;;
19998;SDS011;10160;50.926;4.374;2022-12-18T07:25:00;30.87;;;16.43;;
19998;SDS011;10160;50.926;4.374;2022-12-18T07:27:25;32.90;;;15.50;;
19998;SDS011;10160;50.926;4.374;2022-12-18T07:29:51;34.60;;;15.60;;
19998;SDS011;10160;50.926;4.374;2022-12-18T07:32:17;36.77;;;15.67;;
19998;SDS011;10160;50.926;4.374;2022-12-18T07:34:42;35.93;;;16.07;;
19998;SDS011;10160;50.926;4.374;2022-12-18T07:37:08;36.97;;;17.30;;
19998;SDS011;10160;50.926;4.374;2022-12-18T07:39:34;42.30;;;20.07;;
19998;SDS011;10160;50.926;4.374;2022-12-18T07:42:00;49.50;;;22.57;;
19998;SDS011;10160;50.926;4.374;2022-12-18T07:44:44;93.27;;;43.00;;
19998;SDS011;10160;50.926;4.374;2022-12-18T07:47:09;91.47;;;42.33;;
19998;SDS011;10160;50.926;4.374;2022-12-18T07:49:35;38.67;;;20.00;;
19998;SDS011;10160;50.926;4.374;2022-12-18T07:52:01;33.97;;;16.87;;
19998;SDS011;10160;50.926;4.374;2022-12-18T07:54:40;38.37;;;16.80;;
19998;SDS011;10160;50.926;4.374;2022-12-18T07:57:05;29.00;;;15.27;;
19998;SDS011;10160;50.926;4.374;2022-12-18T07:59:31;31.40;;;16.27;;
19998;SDS011;10160;50.926;4.374;2022-12-18T08:01:57;30.73;;;15.40;;
19998;SDS011;10160;50.926;4.374;2022-12-18T08:04:23;32.10;;;15.97;;
19998;SDS011;10160;50.926;4.374;2022-12-18T08:06:49;37.13;;;16.90;;
19998;SDS011;10160;50.926;4.374;2022-12-18T08:09:15;29.63;;;15.67;;
19998;SDS011;10160;50.926;4.374;2022-12-18T08:11:41;33.03;;;14.33;;
19998;SDS011;10160;50.926;4.374;2022-12-18T08:14:07;30.33;;;14.40;;
19998;SDS011;10160;50.926;4.374;2022-12-18T08:16:32;26.77;;;12.87;;
19998;SDS011;10160;50.926;4.374;2022-12-18T08:18:58;30.97;;;13.93;;
19998;SDS011;10160;50.926;4.374;2022-12-18T08:21:25;24.30;;;13.00;;
19998;SDS011;10160;50.926;4.374;2022-12-18T08:23:53;26.67;;;11.90;;
19998;SDS011;10160;50.926;4.374;2022-12-18T08:26:20;22.87;;;10.10;;
19998;SDS011;10160;50.926;4.374;2022-12-18T08:28:46;21.50;;;11.67;;
19998;SDS011;10160;50.926;4.374;2022-12-18T08:31:12;22.63;;;10.83;;
19998;SDS011;10160;50.926;4.374;2022-12-18T08:33:41;18.37;;;10.30;;
19998;SDS011;10160;50.926;4.374;2022-12-18T08:36:08;23.30;;;10.63;;
19998;SDS011;10160;50.926;4.374;2022-12-18T08:38:35;21.47;;;10.43;;
19998;SDS011;10160;50.926;4.374;2022-12-18T08:41:05;19.10;;;10.37;;
19998;SDS011;10160;50.926;4.374;2022-12-18T08:43:32;18.93;;;9.67;;
19998;SDS011;10160;50.926;4.374;2022-12-18T08:46:17;20.23;;;9.53;;
19998;SDS011;10160;50.926;4.374;2022-12-18T08:48:44;19.40;;;9.70;;
19998;SDS011;10160;50.926;4.374;2022-12-18T08:51:09;16.87;;;8.70;;
19998;SDS011;10160;50.926;4.374;2022-12-18T08:53:35;17.07;;;9.83;;
19998;SDS011;10160;50.926;4.374;2022-12-18T08:56:02;15.90;;;9.57;;
19998;SDS011;10160;50.926;4.374;2022-12-18T08:58:37;17.63;;;9.40;;
19998;SDS011;10160;50.926;4.374;2022-12-18T09:01:03;20.37;;;10.73;;
19998;SDS011;10160;50.926;4.374;2022-12-18T09:03:30;20.87;;;9.63;;
19998;SDS011;10160;50.926;4.374;2022-12-18T09:05:56;17.63;;;9.77;;
19998;SDS011;10160;50.926;4.374;2022-12-18T09:08:22;23.23;;;10.60;;
19998;SDS011;10160;50.926;4.374;2022-12-18T09:10:48;18.87;;;10.00;;
19998;SDS011;10160;50.926;4.374;2022-12-18T09:13:15;20.43;;;9.97;;
19998;SDS011;10160;50.926;4.374;2022-12-18T09:15:46;22.43;;;11.10;;
19998;SDS011;10160;50.926;4.374;2022-12-18T09:18:14;19.30;;;10.83;;
19998;SDS011;10160;50.926;4.374;2022-12-18T09:20:41;18.40;;;10.67;;
19998;SDS011;10160;50.926;4.374;2022-12-18T09:23:07;20.83;;;11.43;;
19998;SDS011;10160;50.926;4.374;2022-12-18T09:25:34;22.20;;;11.50;;
19998;SDS011;10160;50.926;4.374;2022-12-18T09:28:04;19.13;;;10.43;;
19998;SDS011;10160;50.926;4.374;2022-12-18T09:30:40;19.97;;;10.30;;
19998;SDS011;10160;50.926;4.374;2022-12-18T09:33:07;19.63;;;10.57;;
19998;SDS011;10160;50.926;4.374;2022-12-18T09:35:36;21.37;;;10.53;;
19998;SDS011;10160;50.926;4.374;2022-12-18T09:38:02;22.87;;;10.83;;
19998;SDS011;10160;50.926;4.374;2022-12-18T09:40:28;22.17;;;10.67;;
19998;SDS011;10160;50.926;4.374;2022-12-18T09:43:02;18.70;;;10.30;;
19998;SDS011;10160;50.926;4.374;2022-12-18T09:45:40;19.87;;;11.03;;
19998;SDS011;10160;50.926;4.374;2022-12-18T09:48:15;22.50;;;11.93;;
19998;SDS011;10160;50.926;4.374;2022-12-18T09:50:59;19.53;;;11.27;;
19998;SDS011;10160;50.926;4.374;2022-12-18T09:53:30;22.63;;;10.27;;
19998;SDS011;10160;50.926;4.374;2022-12-18T09:56:00;20.83;;;10.73;;
19998;SDS011;10160;50.926;4.374;2022-12-18T09:58:33;23.90;;;11.93;;
19998;SDS011;10160;50.926;4.374;2022-12-18T10:01:11;25.77;;;14.67;;
19998;SDS011;10160;50.926;4.374;2022-12-18T10:03:41;36.73;;;21.30;;
19998;SDS011;10160;50.926;4.374;2022-12-18T10:13:45;27.53;;;17.47;;
19998;SDS011;10160;50.926;4.374;2022-12-18T10:16:38;32.53;;;16.90;;
19998;SDS011;10160;50.926;4.374;2022-12-18T10:19:13;30.53;;;14.67;;
19998;SDS011;10160;50.926;4.374;2022-12-18T10:28:23;27.03;;;12.40;;
19998;SDS011;10160;50.926;4.374;2022-12-18T10:30:50;37.33;;;16.43;;
19998;SDS011;10160;50.926;4.374;2022-12-18T10:33:17;35.10;;;15.90;;
19998;SDS011;10160;50.926;4.374;2022-12-18T10:35:49;29.10;;;14.23;;
19998;SDS011;10160;50.926;4.374;2022-12-18T10:40:49;36.80;;;14.50;;
19998;SDS011;10160;50.926;4.374;2022-12-18T10:43:21;25.60;;;11.77;;
19998;SDS011;10160;50.926;4.374;2022-12-18T10:48:35;29.67;;;12.27;;
19998;SDS011;10160;50.926;4.374;2022-12-18T10:51:27;30.77;;;13.20;;
19998;SDS011;10160;50.926;4.374;2022-12-18T10:54:05;22.33;;;11.23;;
19998;SDS011;10160;50.926;4.374;2022-12-18T10:56:38;19.40;;;11.13;;
19998;SDS011;10160;50.926;4.374;2022-12-18T10:59:05;26.73;;;12.30;;
19998;SDS011;10160;50.926;4.374;2022-12-18T11:04:26;24.97;;;11.93;;
19998;SDS011;10160;50.926;4.374;2022-12-18T11:09:28;21.47;;;11.47;;
19998;SDS011;10160;50.926;4.374;2022-12-18T11:14:41;20.80;;;11.43;;
19998;SDS011;10160;50.926;4.374;2022-12-18T11:20:05;22.73;;;12.03;;
19998;SDS011;10160;50.926;4.374;2022-12-18T11:22:59;27.40;;;14.03;;
19998;SDS011;10160;50.926;4.374;2022-12-18T11:25:30;40.53;;;19.63;;
19998;SDS011;10160;50.926;4.374;2022-12-18T11:28:02;30.90;;;16.23;;
19998;SDS011;10160;50.926;4.374;2022-12-18T11:30:31;32.30;;;16.70;;
19998;SDS011;10160;50.926;4.374;2022-12-18T11:32:59;30.20;;;16.03;;
19998;SDS011;10160;50.926;4.374;2022-12-18T11:40:58;33.43;;;16.80;;
19998;SDS011;10160;50.926;4.374;2022-12-18T11:43:33;37.30;;;17.83;;
19998;SDS011;10160;50.926;4.374;2022-12-18T11:46:13;34.47;;;16.60;;
19998;SDS011;10160;50.926;4.374;2022-12-18T11:49:19;27.47;;;14.97;;
19998;SDS011;10160;50.926;4.374;2022-12-18T11:51:56;27.37;;;14.10;;
19998;SDS011;10160;50.926;4.374;2022-12-18T11:54:27;36.13;;;14.43;;
19998;SDS011;10160;50.926;4.374;2022-12-18T11:56:58;30.00;;;15.97;;
19998;SDS011;10160;50.926;4.374;2022-12-18T11:59:41;29.00;;;14.40;;
19998;SDS011;10160;50.926;4.374;2022-12-18T12:05:42;33.63;;;17.53;;
19998;SDS011;10160;50.926;4.374;2022-12-18T12:27:23;28.70;;;14.47;;
19998;SDS011;10160;50.926;4.374;2022-12-18T12:30:08;31.77;;;14.67;;
19998;SDS011;10160;50.926;4.374;2022-12-18T12:32:52;23.70;;;13.17;;
19998;SDS011;10160;50.926;4.374;2022-12-18T12:38:21;28.30;;;13.40;;
19998;SDS011;10160;50.926;4.374;2022-12-18T12:41:05;31.07;;;15.03;;
19998;SDS011;10160;50.926;4.374;2022-12-18T12:43:54;34.57;;;15.33;;
19998;SDS011;10160;50.926;4.374;2022-12-18T12:46:22;26.93;;;13.63;;
19998;SDS011;10160;50.926;4.374;2022-12-18T12:48:57;26.43;;;13.90;;
19998;SDS011;10160;50.926;4.374;2022-12-18T12:51:36;26.23;;;12.97;;
19998;SDS011;10160;50.926;4.374;2022-12-18T12:54:08;31.27;;;14.77;;
19998;SDS011;10160;50.926;4.374;2022-12-18T12:57:03;30.07;;;13.70;;
19998;SDS011;10160;50.926;4.374;2022-12-18T13:02:30;31.97;;;13.97;;
19998;SDS011;10160;50.926;4.374;2022-12-18T13:05:23;27.20;;;12.90;;
19998;SDS011;10160;50.926;4.374;2022-12-18T13:07:59;31.50;;;14.90;;
19998;SDS011;10160;50.926;4.374;2022-12-18T13:10:32;29.27;;;14.57;;
19998;SDS011;10160;50.926;4.374;2022-12-18T13:13:04;28.13;;;14.33;;
19998;SDS011;10160;50.926;4.374;2022-12-18T13:23:28;35.03;;;13.83;;
19998;SDS011;10160;50.926;4.374;2022-12-18T13:26:27;34.77;;;14.43;;
19998;SDS011;10160;50.926;4.374;2022-12-18T13:28:52;30.53;;;14.23;;
19998;SDS011;10160;50.926;4.374;2022-12-18T13:36:46;26.50;;;13.23;;
19998;SDS011;10160;50.926;4.374;2022-12-18T13:41:46;29.47;;;13.93;;
19998;SDS011;10160;50.926;4.374;2022-12-18T13:44:32;29.67;;;13.57;;
19998;SDS011;10160;50.926;4.374;2022-12-18T13:47:02;30.93;;;14.27;;
19998;SDS011;10160;50.926;4.374;2022-12-18T13:49:40;27.73;;;13.27;;
19998;SDS011;10160;50.926;4.374;2022-12-18T13:52:15;28.80;;;15.10;;
19998;SDS011;10160;50.926;4.374;2022-12-18T13:54:56;32.90;;;15.77;;
19998;SDS011;10160;50.926;4.374;2022-12-18T13:59:57;34.57;;;15.80;;
19998;SDS011;10160;50.926;4.374;2022-12-18T14:02:25;31.73;;;15.47;;
19998;SDS011;10160;50.926;4.374;2022-12-18T14:04:54;38.60;;;17.23;;
19998;SDS011;10160;50.926;4.374;2022-12-18T14:07:24;39.20;;;19.00;;
19998;SDS011;10160;50.926;4.374;2022-12-18T14:09:57;39.00;;;17.73;;
19998;SDS011;10160;50.926;4.374;2022-12-18T14:12:26;37.00;;;17.93;;
19998;SDS011;10160;50.926;4.374;2022-12-18T14:18:14;34.90;;;17.43;;
19998;SDS011;10160;50.926;4.374;2022-12-18T14:20:44;35.73;;;16.47;;
19998;SDS011;10160;50.926;4.374;2022-12-18T14:23:32;34.77;;;16.03;;
19998;SDS011;10160;50.926;4.374;2022-12-18T14:26:00;33.27;;;16.07;;
19998;SDS011;10160;50.926;4.374;2022-12-18T14:28:28;35.63;;;16.60;;
19998;SDS011;10160;50.926;4.374;2022-12-18T14:30:54;37.03;;;17.57;;
19998;SDS011;10160;50.926;4.374;2022-12-18T14:33:22;33.40;;;17.37;;
19998;SDS011;10160;50.926;4.374;2022-12-18T14:38:33;33.80;;;17.03;;
19998;SDS011;10160;50.926;4.374;2022-12-18T14:41:02;35.90;;;17.70;;
19998;SDS011;10160;50.926;4.374;2022-12-18T14:43:35;42.60;;;17.93;;
19998;SDS011;10160;50.926;4.374;2022-12-18T14:46:03;45.13;;;19.50;;
19998;SDS011;10160;50.926;4.374;2022-12-18T14:53:40;38.30;;;17.47;;
19998;SDS011;10160;50.926;4.374;2022-12-18T14:56:43;38.83;;;19.00;;
19998;SDS011;10160;50.926;4.374;2022-12-18T14:59:03;42.90;;;18.50;;
19998;SDS011;10160;50.926;4.374;2022-12-18T15:02:01;37.63;;;19.30;;
19998;SDS011;10160;50.926;4.374;2022-12-18T15:04:39;39.10;;;18.90;;
19998;SDS011;10160;50.926;4.374;2022-12-18T15:07:21;37.90;;;18.63;;
19998;SDS011;10160;50.926;4.374;2022-12-18T15:12:36;39.13;;;17.77;;
19998;SDS011;10160;50.926;4.374;2022-12-18T15:15:03;42.60;;;18.43;;
19998;SDS011;10160;50.926;4.374;2022-12-18T15:17:30;41.10;;;17.83;;
19998;SDS011;10160;50.926;4.374;2022-12-18T15:20:03;37.27;;;17.47;;
19998;SDS011;10160;50.926;4.374;2022-12-18T15:22:35;36.27;;;17.43;;
19998;SDS011;10160;50.926;4.374;2022-12-18T15:25:02;37.30;;;17.30;;
19998;SDS011;10160;50.926;4.374;2022-12-18T15:27:45;33.97;;;17.33;;
19998;SDS011;10160;50.926;4.374;2022-12-18T15:30:16;37.13;;;17.97;;
19998;SDS011;10160;50.926;4.374;2022-12-18T15:32:43;35.63;;;17.93;;
19998;SDS011;10160;50.926;4.374;2022-12-18T15:37:43;41.50;;;17.57;;
19998;SDS011;10160;50.926;4.374;2022-12-18T15:40:17;39.80;;;17.77;;
19998;SDS011;10160;50.926;4.374;2022-12-18T15:42:44;38.43;;;18.03;;
19998;SDS011;10160;50.926;4.374;2022-12-18T15:45:29;41.53;;;18.47;;
19998;SDS011;10160;50.926;4.374;2022-12-18T15:47:54;37.43;;;18.00;;
19998;SDS011;10160;50.926;4.374;2022-12-18T15:50:20;39.50;;;17.63;;
19998;SDS011;10160;50.926;4.374;2022-12-18T15:52:47;38.40;;;17.67;;
19998;SDS011;10160;50.926;4.374;2022-12-18T15:55:15;37.30;;;17.13;;
19998;SDS011;10160;50.926;4.374;2022-12-18T15:58:01;35.97;;;16.23;;
19998;SDS011;10160;50.926;4.374;2022-12-18T16:00:27;38.20;;;16.83;;
19998;SDS011;10160;50.926;4.374;2022-12-18T16:02:53;37.67;;;17.40;;
19998;SDS011;10160;50.926;4.374;2022-12-18T16:05:20;36.43;;;17.23;;
19998;SDS011;10160;50.926;4.374;2022-12-18T16:07:46;31.77;;;15.27;;
19998;SDS011;10160;50.926;4.374;2022-12-18T16:10:12;36.53;;;16.83;;
19998;SDS011;10160;50.926;4.374;2022-12-18T16:12:38;38.70;;;17.40;;
19998;SDS011;10160;50.926;4.374;2022-12-18T16:15:05;36.77;;;17.23;;
19998;SDS011;10160;50.926;4.374;2022-12-18T16:17:31;39.77;;;19.33;;
19998;SDS011;10160;50.926;4.374;2022-12-18T16:19:57;32.93;;;16.43;;
19998;SDS011;10160;50.926;4.374;2022-12-18T16:22:26;32.33;;;13.20;;
19998;SDS011;10160;50.926;4.374;2022-12-18T16:24:54;30.27;;;15.80;;
19998;SDS011;10160;50.926;4.374;2022-12-18T16:27:20;28.83;;;14.23;;
19998;SDS011;10160;50.926;4.374;2022-12-18T16:29:46;37.40;;;17.37;;
19998;SDS011;10160;50.926;4.374;2022-12-18T16:32:13;39.27;;;17.23;;
19998;SDS011;10160;50.926;4.374;2022-12-18T16:34:41;33.60;;;15.20;;
19998;SDS011;10160;50.926;4.374;2022-12-18T16:37:08;36.33;;;16.70;;
19998;SDS011;10160;50.926;4.374;2022-12-18T16:39:35;36.90;;;16.23;;
19998;SDS011;10160;50.926;4.374;2022-12-18T16:42:02;37.13;;;17.57;;
19998;SDS011;10160;50.926;4.374;2022-12-18T16:44:29;39.50;;;17.13;;
19998;SDS011;10160;50.926;4.374;2022-12-18T16:46:55;32.27;;;16.10;;
19998;SDS011;10160;50.926;4.374;2022-12-18T16:49:26;35.73;;;15.93;;